createdAt,value
2019-05-17T00:01:07.588Z,11.45
2019-05-17T00:03:38.676Z,11.48
2019-05-17T00:06:10.002Z,11.55
2019-05-17T00:08:40.820Z,11.47
2019-05-17T00:11:11.657Z,11.54
2019-05-17T00:13:42.337Z,11.50
2019-05-17T00:16:13.653Z,11.50
2019-05-17T00:18:46.295Z,11.40
2019-05-17T00:21:17.053Z,11.44
2019-05-17T00:23:47.950Z,11.40
2019-05-17T00:26:18.869Z,11.33
2019-05-17T00:28:49.620Z,11.41
2019-05-17T00:31:20.530Z,11.25
2019-05-17T00:33:51.297Z,11.23
2019-05-17T00:36:22.160Z,11.20
2019-05-17T00:38:52.900Z,11.04
2019-05-17T00:41:23.783Z,11.06
2019-05-17T00:43:56.789Z,11.07
2019-05-17T00:46:27.199Z,10.98
2019-05-17T00:48:58.061Z,10.82
2019-05-17T00:51:28.820Z,10.84
2019-05-17T00:54:00.481Z,10.77
2019-05-17T00:56:31.337Z,10.74
2019-05-17T00:59:02.020Z,10.69
2019-05-17T01:01:32.892Z,10.61
2019-05-17T01:04:03.730Z,10.59
2019-05-17T01:06:34.628Z,10.53
2019-05-17T01:09:07.802Z,10.49
2019-05-17T01:11:38.802Z,10.38
2019-05-17T01:14:09.732Z,10.37
2019-05-17T01:16:40.709Z,10.34
2019-05-17T01:19:11.506Z,10.23
2019-05-17T01:21:42.355Z,10.13
2019-05-17T01:24:14.274Z,10.07
2019-05-17T01:26:46.889Z,10.11
2019-05-17T01:29:17.824Z,10.10
2019-05-17T01:31:48.904Z,10.04
2019-05-17T01:34:19.700Z,10.04
2019-05-17T01:36:50.469Z,9.97
2019-05-17T01:39:21.620Z,10.02
2019-05-17T01:41:52.411Z,9.85
2019-05-17T01:44:23.374Z,9.72
2019-05-17T01:46:54.181Z,9.66
2019-05-17T01:49:27.122Z,9.63
2019-05-17T01:51:58.013Z,9.58
2019-05-17T01:54:28.887Z,9.54
2019-05-17T01:56:59.674Z,9.49
2019-05-17T01:59:30.317Z,9.42
2019-05-17T02:02:07.134Z,9.31
2019-05-17T02:04:38.416Z,9.41
2019-05-17T02:07:09.306Z,9.42
2019-05-17T02:09:41.688Z,9.32
2019-05-17T02:12:12.759Z,9.17
2019-05-17T02:14:43.835Z,9.22
2019-05-17T02:17:14.664Z,9.23
2019-05-17T02:19:46.529Z,9.11
2019-05-17T02:22:17.576Z,9.05
2019-05-17T02:24:49.297Z,8.91
2019-05-17T02:27:22.010Z,8.71
2019-05-17T02:29:53.929Z,8.68
2019-05-17T02:32:25.118Z,8.73
2019-05-17T02:34:56.116Z,8.77
2019-05-17T02:37:27.187Z,8.84
2019-05-17T02:40:03.024Z,8.86
2019-05-17T02:42:33.007Z,8.76
2019-05-17T02:45:03.544Z,8.76
2019-05-17T02:47:34.484Z,8.80
2019-05-17T02:50:06.029Z,8.76
2019-05-17T02:52:36.928Z,8.78
2019-05-17T02:55:07.766Z,8.79
2019-05-17T02:57:38.742Z,8.81
2019-05-17T03:00:13.009Z,8.77
2019-05-17T03:02:43.461Z,8.69
2019-05-17T03:05:15.165Z,8.64
2019-05-17T03:07:46.094Z,8.55
2019-05-17T03:10:27.480Z,8.46
2019-05-17T03:12:52.933Z,8.46
2019-05-17T03:15:23.656Z,8.44
2019-05-17T03:17:54.650Z,8.44
2019-05-17T03:20:25.408Z,8.49
2019-05-17T03:22:56.218Z,8.46
2019-05-17T03:25:27.132Z,8.40
2019-05-17T03:27:57.965Z,8.38
2019-05-17T03:30:28.801Z,8.30
2019-05-17T03:33:06.171Z,8.34
2019-05-17T03:35:37.665Z,8.32
2019-05-17T03:38:06.960Z,8.25
2019-05-17T03:41:03.602Z,8.18
2019-05-17T03:43:13.531Z,8.05
2019-05-17T03:45:42.987Z,8.05
2019-05-17T03:48:13.868Z,8.05
2019-05-17T03:50:44.683Z,8.00
2019-05-17T03:53:15.884Z,8.05
2019-05-17T03:55:46.772Z,8.05
2019-05-17T03:58:17.645Z,8.02
2019-05-17T04:00:48.420Z,8.07
2019-05-17T04:03:22.687Z,8.15
2019-05-17T04:05:52.879Z,8.19
2019-05-17T04:08:25.061Z,8.18
2019-05-17T04:10:55.949Z,8.04
2019-05-17T04:13:26.826Z,7.97
2019-05-17T04:15:57.611Z,8.09
2019-05-17T04:18:28.290Z,8.09
2019-05-17T04:20:59.099Z,8.18
2019-05-17T04:23:33.544Z,8.34
2019-05-17T04:26:04.276Z,8.20
2019-05-17T04:28:35.076Z,8.23
2019-05-17T04:31:05.971Z,8.22
2019-05-17T04:33:37.827Z,8.24
2019-05-17T04:36:08.753Z,8.23
2019-05-17T04:38:43.349Z,8.15
2019-05-17T04:41:13.352Z,8.17
2019-05-17T04:43:44.316Z,8.23
2019-05-17T04:46:14.830Z,8.31
2019-05-17T04:48:45.741Z,8.26
2019-05-17T04:51:17.739Z,8.34
2019-05-17T04:53:48.496Z,8.41
2019-05-17T04:56:22.461Z,8.53
2019-05-17T04:58:54.393Z,8.63
2019-05-17T05:01:24.286Z,8.72
2019-05-17T05:03:55.215Z,8.75
2019-05-17T05:06:26.846Z,8.81
2019-05-17T05:08:57.605Z,8.90
2019-05-17T05:11:28.518Z,8.95
2019-05-17T05:14:02.441Z,9.02
2019-05-17T05:16:32.711Z,9.05
2019-05-17T05:19:03.556Z,9.13
2019-05-17T05:21:34.456Z,9.22
2019-05-17T05:24:05.287Z,9.27
2019-05-17T05:26:35.919Z,9.34
2019-05-17T05:29:06.907Z,9.41
2019-05-17T05:31:37.820Z,9.47
2019-05-17T05:34:08.622Z,9.47
2019-05-17T05:36:41.866Z,9.62
2019-05-17T05:39:12.663Z,9.62
2019-05-17T05:41:43.431Z,9.50
2019-05-17T05:44:14.297Z,9.72
2019-05-17T05:46:45.069Z,9.85
2019-05-17T05:49:16.762Z,9.92
2019-05-17T05:51:47.561Z,10.24
2019-05-17T05:54:18.315Z,10.41
2019-05-17T05:56:49.214Z,10.57
2019-05-17T05:59:22.314Z,10.77
2019-05-17T06:01:52.710Z,10.96
2019-05-17T06:04:23.658Z,11.10
2019-05-17T06:06:54.320Z,10.95
2019-05-17T06:09:25.261Z,11.41
2019-05-17T06:11:56.944Z,11.61
2019-05-17T06:14:27.699Z,11.54
2019-05-17T06:16:58.368Z,11.26
2019-05-17T06:19:31.398Z,11.65
2019-05-17T06:22:02.757Z,11.86
2019-05-17T06:24:34.783Z,11.85
2019-05-17T06:27:05.712Z,11.93
2019-05-17T06:29:36.458Z,12.06
2019-05-17T06:32:07.345Z,12.19
2019-05-17T06:34:38.129Z,12.16
2019-05-17T06:37:08.915Z,12.23
2019-05-17T06:39:41.836Z,12.31
2019-05-17T06:42:12.207Z,12.46
2019-05-17T06:44:42.781Z,12.47
2019-05-17T06:47:13.448Z,12.65
2019-05-17T06:49:44.391Z,12.68
2019-05-17T06:52:15.404Z,12.84
2019-05-17T06:54:46.049Z,12.91
2019-05-17T06:57:17.704Z,13.10
2019-05-17T06:59:48.404Z,13.27
2019-05-17T07:02:19.779Z,13.37
2019-05-17T07:04:51.012Z,13.04
2019-05-17T07:07:30.478Z,12.75
2019-05-17T07:10:01.050Z,13.02
2019-05-17T07:12:31.851Z,12.79
2019-05-17T07:15:02.632Z,13.02
2019-05-17T07:17:33.509Z,13.20
2019-05-17T07:20:04.453Z,13.18
2019-05-17T07:22:35.176Z,13.22
2019-05-17T07:25:06.836Z,13.21
2019-05-17T07:27:41.734Z,13.32
2019-05-17T07:30:10.797Z,13.08
2019-05-17T07:32:41.490Z,12.96
2019-05-17T07:35:12.845Z,13.27
2019-05-17T07:37:43.450Z,13.30
2019-05-17T07:40:14.545Z,13.67
2019-05-17T07:42:45.488Z,13.75
2019-05-17T07:45:16.558Z,14.03
2019-05-17T07:47:49.460Z,14.12
2019-05-17T07:50:20.221Z,13.93
2019-05-17T07:52:50.884Z,13.84
2019-05-17T07:55:23.072Z,14.04
2019-05-17T07:57:54.872Z,14.20
2019-05-17T08:00:25.744Z,14.00
2019-05-17T08:02:59.870Z,14.06
2019-05-17T08:05:30.292Z,14.24
2019-05-17T08:08:01.026Z,14.51
2019-05-17T08:10:31.895Z,14.10
2019-05-17T08:13:02.587Z,14.31
2019-05-17T08:15:33.456Z,14.15
2019-05-17T08:18:04.224Z,14.16
2019-05-17T08:20:35.996Z,14.31
2019-05-17T08:23:06.800Z,14.50
2019-05-17T08:25:49.636Z,14.54
2019-05-17T08:28:11.013Z,14.50
2019-05-17T08:30:42.032Z,14.66
2019-05-17T08:33:12.838Z,14.60
2019-05-17T08:35:43.601Z,14.67
2019-05-17T08:38:14.365Z,14.38
2019-05-17T08:40:45.128Z,14.70
2019-05-17T08:43:15.937Z,14.95
2019-05-17T08:45:46.504Z,15.37
2019-05-17T08:48:17.354Z,15.89
2019-05-17T08:50:49.486Z,16.08
2019-05-17T08:53:20.336Z,16.00
2019-05-17T08:55:51.130Z,16.13
2019-05-17T08:58:21.851Z,16.15
2019-05-17T09:00:52.538Z,16.33
2019-05-17T09:03:23.453Z,16.40
2019-05-17T09:05:54.006Z,16.42
2019-05-17T09:08:25.787Z,16.28
2019-05-17T09:10:56.564Z,16.44
2019-05-17T09:13:27.278Z,16.64
2019-05-17T09:16:01.970Z,16.90
2019-05-17T09:18:32.701Z,16.63
2019-05-17T09:21:03.466Z,16.84
2019-05-17T09:23:34.249Z,17.25
2019-05-17T09:26:05.106Z,17.37
2019-05-17T09:28:36.004Z,17.25
2019-05-17T09:31:06.912Z,17.00
2019-05-17T09:33:37.712Z,16.99
2019-05-17T09:36:10.125Z,17.29
2019-05-17T09:38:40.912Z,17.47
2019-05-17T09:41:11.784Z,17.42
2019-05-17T09:43:42.653Z,17.42
2019-05-17T09:46:13.539Z,17.21
2019-05-17T09:48:46.922Z,17.34
2019-05-17T09:51:16.740Z,17.48
2019-05-17T09:53:49.597Z,17.70
2019-05-17T09:56:20.618Z,17.69
2019-05-17T09:58:52.728Z,17.75
2019-05-17T10:01:23.328Z,17.67
2019-05-17T10:03:54.302Z,17.64
2019-05-17T10:06:24.992Z,17.78
2019-05-17T10:08:55.829Z,18.00
2019-05-17T10:11:26.604Z,18.02
2019-05-17T10:13:59.011Z,18.04
2019-05-17T10:16:30.760Z,17.97
2019-05-17T10:19:01.610Z,18.02
2019-05-17T10:21:32.570Z,18.12
2019-05-17T10:24:03.867Z,18.44
2019-05-17T10:26:34.658Z,18.58
2019-05-17T10:29:05.532Z,18.26
2019-05-17T10:31:36.160Z,18.42
2019-05-17T10:34:09.453Z,18.52
2019-05-17T10:36:40.156Z,18.82
2019-05-17T10:39:11.201Z,18.70
2019-05-17T10:41:41.964Z,18.06
2019-05-17T10:44:12.942Z,18.54
2019-05-17T10:46:43.817Z,18.99
2019-05-17T10:49:14.695Z,19.13
2019-05-17T10:51:45.627Z,19.36
2019-05-17T10:54:16.489Z,19.19
2019-05-17T10:56:50.093Z,19.49
2019-05-17T10:59:20.363Z,19.51
2019-05-17T11:01:51.122Z,19.41
2019-05-17T11:04:21.993Z,19.43
2019-05-17T11:06:52.785Z,19.28
2019-05-17T11:09:23.738Z,19.23
2019-05-17T11:11:54.773Z,19.48
2019-05-17T11:14:25.541Z,19.82
2019-05-17T11:16:57.689Z,19.82
2019-05-17T11:19:28.502Z,19.92
2019-05-17T11:21:59.181Z,20.10
2019-05-17T11:24:29.978Z,19.80
2019-05-17T11:27:00.846Z,20.29
2019-05-17T11:29:31.672Z,19.95
2019-05-17T11:32:02.481Z,20.11
2019-05-17T11:34:33.286Z,20.52
2019-05-17T11:37:03.946Z,20.44
2019-05-17T11:39:34.638Z,20.68
2019-05-17T11:42:05.709Z,20.21
2019-05-17T11:44:36.456Z,20.31
2019-05-17T11:47:07.293Z,20.65
2019-05-17T11:49:38.065Z,20.94
2019-05-17T11:52:08.796Z,21.07
2019-05-17T11:54:39.566Z,20.31
2019-05-17T11:57:12.309Z,20.64
2019-05-17T11:59:42.868Z,20.96
2019-05-17T12:02:13.750Z,21.03
2019-05-17T12:04:44.447Z,21.16
2019-05-17T12:07:15.120Z,20.82
2019-05-17T12:09:45.917Z,21.16
2019-05-17T12:12:16.824Z,21.46
2019-05-17T12:14:47.520Z,21.35
2019-05-17T12:17:18.677Z,21.64
2019-05-17T12:19:49.465Z,21.75
2019-05-17T12:22:20.425Z,21.70
2019-05-17T12:24:51.065Z,21.97
2019-05-17T12:27:22.083Z,21.84
2019-05-17T12:29:52.850Z,22.06
2019-05-17T12:32:23.826Z,22.03
2019-05-17T12:34:54.620Z,22.26
2019-05-17T12:37:25.460Z,22.36
2019-05-17T12:39:56.424Z,22.40
2019-05-17T12:42:27.265Z,22.58
2019-05-17T12:44:58.166Z,22.89
2019-05-17T12:47:29.040Z,22.79
2019-05-17T12:49:59.853Z,23.01
2019-05-17T12:52:30.840Z,23.10
2019-05-17T12:55:01.614Z,23.39
2019-05-17T12:57:32.433Z,23.07
2019-05-17T13:00:03.285Z,22.87
2019-05-17T13:02:34.120Z,22.79
2019-05-17T13:05:05.319Z,23.05
2019-05-17T13:07:36.071Z,23.22
2019-05-17T13:10:07.848Z,23.52
2019-05-17T13:12:38.665Z,23.14
2019-05-17T13:15:09.948Z,23.07
2019-05-17T13:17:40.781Z,23.24
2019-05-17T13:20:12.173Z,23.09
2019-05-17T13:22:42.950Z,22.97
2019-05-17T13:25:13.915Z,23.17
2019-05-17T13:27:44.811Z,22.28
2019-05-17T13:30:15.902Z,22.67
2019-05-17T13:32:46.687Z,22.68
2019-05-17T13:35:17.990Z,23.05
2019-05-17T13:37:48.871Z,23.30
2019-05-17T13:40:20.020Z,23.57
2019-05-17T13:42:50.905Z,23.58
2019-05-17T13:45:21.870Z,23.54
2019-05-17T13:47:52.617Z,23.40
2019-05-17T13:50:23.856Z,23.06
2019-05-17T13:52:54.764Z,22.83
2019-05-17T13:55:25.810Z,23.21
2019-05-17T13:57:56.513Z,22.40
2019-05-17T14:00:27.483Z,22.70
2019-05-17T14:02:58.313Z,22.31
2019-05-17T14:05:29.367Z,22.51
2019-05-17T14:08:00.185Z,22.98
2019-05-17T14:10:32.191Z,23.04
2019-05-17T14:13:03.138Z,22.89
2019-05-17T14:15:34.061Z,22.88
2019-05-17T14:18:04.946Z,22.69
2019-05-17T14:20:35.922Z,23.17
2019-05-17T14:23:06.817Z,23.23
2019-05-17T14:25:38.079Z,23.46
2019-05-17T14:28:11.305Z,23.58
2019-05-17T14:30:41.795Z,23.45
2019-05-17T14:33:12.657Z,23.81
2019-05-17T14:35:44.801Z,23.79
2019-05-17T14:38:15.491Z,23.56
2019-05-17T14:41:05.770Z,23.59
2019-05-17T14:43:19.665Z,23.72
2019-05-17T14:45:50.525Z,24.01
2019-05-17T14:48:21.369Z,24.03
2019-05-17T14:50:52.259Z,24.08
2019-05-17T14:53:22.972Z,24.18
2019-05-17T14:55:53.698Z,23.85
2019-05-17T14:58:24.396Z,23.77
2019-05-17T15:00:55.221Z,23.74
2019-05-17T15:03:26.478Z,23.84
2019-05-17T15:05:57.182Z,23.77
2019-05-17T15:08:28.054Z,23.64
2019-05-17T15:10:58.822Z,23.42
2019-05-17T15:13:29.698Z,23.46
2019-05-17T15:16:00.493Z,23.54
2019-05-17T15:18:31.261Z,23.62
2019-05-17T15:21:02.250Z,23.49
2019-05-17T15:23:33.043Z,23.21
2019-05-17T15:26:03.949Z,23.38
2019-05-17T15:28:35.495Z,23.53
2019-05-17T15:31:06.270Z,23.29
2019-05-17T15:33:37.136Z,23.58
2019-05-17T15:36:08.040Z,23.64
2019-05-17T15:38:38.890Z,23.53
2019-05-17T15:41:09.612Z,23.52
2019-05-17T15:43:40.438Z,23.05
2019-05-17T15:48:40.572Z,22.76
2019-05-17T15:51:11.453Z,23.10
2019-05-17T15:53:42.120Z,23.30
2019-05-17T15:56:12.922Z,23.50
2019-05-17T15:58:43.692Z,23.43
2019-05-17T16:01:14.452Z,23.46
2019-05-17T16:03:45.253Z,22.97
2019-05-17T16:06:15.934Z,23.52
2019-05-17T16:08:46.627Z,23.73
2019-05-17T16:11:17.408Z,23.74
2019-05-17T16:13:48.225Z,23.87
2019-05-17T16:16:19.016Z,24.57
2019-05-17T16:18:49.816Z,24.43
2019-05-17T16:21:20.671Z,24.58
2019-05-17T16:23:51.445Z,24.69
2019-05-17T16:26:22.274Z,24.41
2019-05-17T16:28:53.035Z,23.82
2019-05-17T16:31:23.846Z,24.11
2019-05-17T16:33:54.605Z,24.29
2019-05-17T16:36:25.473Z,24.32
2019-05-17T16:38:56.283Z,23.71
2019-05-17T16:41:27.169Z,23.78
2019-05-17T16:43:58.196Z,22.94
2019-05-17T16:46:29.195Z,22.46
2019-05-17T16:49:00.207Z,22.66
2019-05-17T16:51:31.016Z,22.73
2019-05-17T16:54:01.816Z,22.07
2019-05-17T16:56:33.533Z,21.51
2019-05-17T16:59:04.340Z,21.43
2019-05-17T17:01:35.242Z,21.26
2019-05-17T17:04:06.473Z,21.40
2019-05-17T17:06:37.411Z,21.43
2019-05-17T17:09:08.384Z,21.50
2019-05-17T17:11:39.169Z,21.96
2019-05-17T17:14:10.139Z,21.92
2019-05-17T17:16:43.436Z,21.96
2019-05-17T17:19:14.240Z,21.48
2019-05-17T17:21:45.041Z,21.22
2019-05-17T17:24:15.738Z,21.18
2019-05-17T17:26:46.628Z,21.03
2019-05-17T17:29:17.511Z,21.02
2019-05-17T17:31:48.214Z,20.88
2019-05-17T17:34:19.074Z,21.13
2019-05-17T17:36:49.813Z,20.62
2019-05-17T17:39:20.476Z,20.56
2019-05-17T17:41:51.357Z,20.14
2019-05-17T17:44:23.268Z,20.17
2019-05-17T17:46:54.044Z,20.01
2019-05-17T17:49:24.689Z,19.69
2019-05-17T17:51:55.384Z,19.80
2019-05-17T17:54:26.045Z,19.61
2019-05-17T17:56:56.942Z,19.74
2019-05-17T17:59:27.853Z,19.79
2019-05-17T18:01:58.694Z,19.69
2019-05-17T18:04:29.619Z,19.39
2019-05-17T18:07:00.665Z,19.41
2019-05-17T18:09:31.416Z,19.26
2019-05-17T18:12:02.216Z,18.93
2019-05-17T18:14:33.074Z,18.90
2019-05-17T18:17:03.936Z,18.93
2019-05-17T18:19:34.901Z,19.01
2019-05-17T18:22:05.960Z,19.03
2019-05-17T18:24:36.823Z,19.04
2019-05-17T18:27:07.670Z,18.93
2019-05-17T18:29:38.673Z,18.65
2019-05-17T18:32:09.541Z,18.76
2019-05-17T18:34:41.068Z,18.88
2019-05-17T18:37:12.146Z,18.51
2019-05-17T18:39:42.973Z,18.44
2019-05-17T18:42:13.537Z,18.42
2019-05-17T18:44:44.404Z,18.40
2019-05-17T18:47:15.977Z,18.05
2019-05-17T18:49:46.729Z,18.29
2019-05-17T18:52:17.536Z,18.37
2019-05-17T18:54:48.317Z,18.23
2019-05-17T18:57:19.237Z,18.43
2019-05-17T18:59:49.800Z,18.47
2019-05-17T19:02:20.704Z,18.32
2019-05-17T19:04:51.369Z,18.13
2019-05-17T19:07:22.179Z,18.19
2019-05-17T19:09:53.018Z,17.97
2019-05-17T19:12:23.751Z,18.22
2019-05-17T19:14:54.773Z,17.95
2019-05-17T19:17:25.610Z,17.89
2019-05-17T19:19:56.396Z,17.96
2019-05-17T19:22:27.395Z,17.81
2019-05-17T19:24:58.372Z,17.76
2019-05-17T19:27:29.659Z,17.68
2019-05-17T19:30:00.344Z,17.81
2019-05-17T19:32:31.087Z,17.64
2019-05-17T19:35:01.882Z,17.80
2019-05-17T19:37:32.721Z,17.74
2019-05-17T19:40:03.589Z,17.79
2019-05-17T19:42:34.470Z,17.71
2019-05-17T19:45:05.639Z,17.56
2019-05-17T19:47:36.369Z,17.53
2019-05-17T19:50:07.539Z,17.65
2019-05-17T19:52:38.324Z,17.39
2019-05-17T19:55:09.385Z,17.46
2019-05-17T19:57:40.101Z,17.56
2019-05-17T20:00:11.754Z,17.41
2019-05-17T20:02:42.489Z,17.38
2019-05-17T20:05:13.554Z,17.30
2019-05-17T20:07:44.153Z,17.30
2019-05-17T20:10:15.512Z,17.15
2019-05-17T20:12:46.165Z,17.00
2019-05-17T20:15:18.413Z,16.97
2019-05-17T20:17:49.345Z,17.07
2019-05-17T20:20:20.370Z,17.15
2019-05-17T20:22:51.268Z,17.13
2019-05-17T20:25:22.392Z,16.97
2019-05-17T20:27:53.171Z,16.94
2019-05-17T20:30:23.945Z,17.05
2019-05-17T20:32:54.848Z,16.99
2019-05-17T20:35:25.649Z,16.99
2019-05-17T20:37:56.717Z,16.91
2019-05-17T20:40:27.617Z,16.99
2019-05-17T20:42:58.442Z,16.80
2019-05-17T20:45:33.337Z,16.88
2019-05-17T20:48:01.775Z,16.78
2019-05-17T20:50:32.471Z,16.89
2019-05-17T20:53:17.996Z,16.84
2019-05-17T20:55:35.862Z,16.66
2019-05-17T20:58:06.654Z,16.66
2019-05-17T21:00:37.584Z,16.48
2019-05-17T21:03:08.497Z,16.34
2019-05-17T21:05:39.267Z,16.50
2019-05-17T21:08:11.082Z,16.63
2019-05-17T21:10:41.951Z,16.48
2019-05-17T21:13:12.753Z,16.46
2019-05-17T21:15:47.887Z,16.55
2019-05-17T21:18:15.998Z,16.57
2019-05-17T21:20:46.789Z,16.38
2019-05-17T21:23:17.589Z,16.44
2019-05-17T21:25:48.621Z,16.30
2019-05-17T21:28:19.318Z,16.22
2019-05-17T21:31:01.194Z,16.26
2019-05-17T21:33:31.646Z,16.38
2019-05-17T21:36:02.563Z,16.41
2019-05-17T21:38:33.431Z,16.34
2019-05-17T21:41:04.183Z,16.28
2019-05-17T21:43:35.229Z,16.21
2019-05-17T21:46:06.126Z,16.09
2019-05-17T21:48:36.986Z,16.03
2019-05-17T21:51:07.727Z,15.98
2019-05-17T21:53:38.620Z,16.03
2019-05-17T21:56:11.659Z,16.01
2019-05-17T21:58:42.506Z,15.98
2019-05-17T22:01:47.814Z,15.87
2019-05-17T22:04:18.849Z,15.87
2019-05-17T22:06:57.302Z,15.86
2019-05-17T22:09:28.160Z,15.84
2019-05-17T22:12:04.952Z,15.75
2019-05-17T22:14:35.746Z,15.78
2019-05-17T22:17:07.336Z,15.76
2019-05-17T22:19:38.129Z,15.72
2019-05-17T22:22:09.062Z,15.78
2019-05-17T22:24:39.693Z,15.74
2019-05-17T22:27:10.460Z,15.71
2019-05-17T22:29:41.328Z,15.66
2019-05-17T22:32:12.118Z,15.58
2019-05-17T22:34:43.137Z,15.55
2019-05-17T22:37:13.981Z,15.51
2019-05-17T22:39:44.861Z,15.57
2019-05-17T22:42:15.636Z,15.58
2019-05-17T22:44:46.353Z,15.59
2019-05-17T22:47:17.629Z,15.55
2019-05-17T22:49:48.673Z,15.44
2019-05-17T22:52:19.337Z,15.45
2019-05-17T22:54:50.140Z,15.46
2019-05-17T22:57:20.907Z,15.32
2019-05-17T22:59:51.581Z,15.40
2019-05-17T23:02:23.107Z,15.38
2019-05-17T23:04:53.848Z,15.46
2019-05-17T23:07:24.635Z,15.52
2019-05-17T23:09:55.362Z,15.54
2019-05-17T23:12:26.144Z,15.55
2019-05-17T23:14:56.900Z,15.50
2019-05-17T23:20:51.557Z,15.42
2019-05-17T23:23:22.608Z,15.40
2019-05-17T23:25:53.345Z,15.27
2019-05-17T23:28:24.129Z,15.13
2019-05-17T23:30:54.801Z,15.36
2019-05-17T23:33:25.618Z,15.22
2019-05-17T23:35:56.617Z,15.30
2019-05-17T23:38:27.412Z,15.29
2019-05-17T23:40:58.129Z,15.25
2019-05-17T23:43:29.004Z,15.34
2019-05-17T23:45:59.913Z,15.34
2019-05-17T23:48:30.792Z,15.15
2019-05-17T23:51:02.610Z,15.28
2019-05-17T23:53:33.475Z,15.28
2019-05-17T23:56:04.280Z,15.18
2019-05-17T23:58:35.355Z,15.22
